Time;durP1;ratioP1;P1;durP2;ratioP2;P2;SDS_P1;SDS_P2;PMS_P1;PMS_P2;Temp;Humidity;BMP_temperature;BMP_pressure;BME280_temperature;BME280_humidity;BME280_pressure;Samples;Min_cycle;Max_cycle;Signal;HPM_P1;HPM_P2
2022/04/14 00:01:14;;;;;;;21.50;17.30;;;;;;;;;;4999209;28;20240;-61
2022/04/14 00:03:40;;;;;;;19.33;16.80;;;;;;;;;;5005248;28;20196;-61
2022/04/14 00:06:06;;;;;;;24.17;17.60;;;;;;;;;;5008743;28;20193;-61
2022/04/14 00:08:32;;;;;;;20.80;17.83;;;;;;;;;;5007841;28;20196;-62
2022/04/14 00:10:58;;;;;;;22.73;18.27;;;;;;;;;;4998962;28;20197;-62
2022/04/14 00:13:24;;;;;;;21.50;17.00;;;;;;;;;;5002054;28;20223;-62
2022/04/14 00:15:50;;;;;;;21.37;17.83;;;;;;;;;;4999470;28;20205;-61
2022/04/14 00:18:16;;;;;;;22.03;17.83;;;;;;;;;;5003111;28;20202;-61
2022/04/14 00:20:42;;;;;;;22.60;17.23;;;;;;;;;;4998012;28;20196;-62
2022/04/14 00:23:08;;;;;;;21.10;17.77;;;;;;;;;;5000999;28;20189;-61
2022/04/14 00:25:35;;;;;;;19.73;16.70;;;;;;;;;;5003704;28;20254;-62
2022/04/14 00:28:01;;;;;;;22.57;18.27;;;;;;;;;;5003652;28;20201;-61
2022/04/14 00:30:27;;;;;;;22.83;17.90;;;;;;;;;;5006247;28;20308;-61
2022/04/14 00:32:53;;;;;;;20.53;17.37;;;;;;;;;;4999296;28;20192;-61
2022/04/14 00:35:19;;;;;;;22.70;18.03;;;;;;;;;;5000248;28;20650;-62
2022/04/14 00:37:45;;;;;;;22.23;17.83;;;;;;;;;;5006463;28;20283;-62
2022/04/14 00:40:11;;;;;;;22.23;17.97;;;;;;;;;;4996644;28;20263;-61
2022/04/14 00:42:37;;;;;;;19.70;16.77;;;;;;;;;;5000135;28;20530;-61
2022/04/14 00:45:03;;;;;;;22.07;19.00;;;;;;;;;;4999727;28;20198;-61
2022/04/14 00:47:29;;;;;;;21.30;18.43;;;;;;;;;;4997321;28;20197;-62
2022/04/14 00:49:55;;;;;;;23.30;18.17;;;;;;;;;;5006562;28;20211;-62
2022/04/14 00:52:22;;;;;;;22.37;18.33;;;;;;;;;;5004426;28;20255;-61
2022/04/14 00:54:48;;;;;;;22.83;18.67;;;;;;;;;;5007154;28;20188;-61
2022/04/14 00:57:14;;;;;;;21.23;18.13;;;;;;;;;;4999317;28;20201;-61
2022/04/14 00:59:41;;;;;;;22.60;19.20;;;;;;;;;;5000788;28;20731;-61
2022/04/14 01:02:07;;;;;;;24.37;19.07;;;;;;;;;;4995092;28;20194;-61
2022/04/14 01:04:33;;;;;;;23.17;18.33;;;;;;;;;;4998821;28;20733;-61
2022/04/14 01:06:59;;;;;;;21.77;18.63;;;;;;;;;;5000394;28;20221;-61
2022/04/14 01:09:26;;;;;;;25.17;18.23;;;;;;;;;;5001128;28;20189;-61
2022/04/14 01:11:56;;;;;;;25.50;19.10;;;;;;;;;;5006640;28;20938;-62
2022/04/14 01:14:28;;;;;;;23.57;18.37;;;;;;;;;;4995920;28;20247;-61
2022/04/14 01:16:55;;;;;;;22.03;18.57;;;;;;;;;;4994435;28;20189;-61
2022/04/14 01:19:21;;;;;;;23.43;19.40;;;;;;;;;;5003539;28;20652;-61
2022/04/14 01:21:51;;;;;;;22.90;18.73;;;;;;;;;;5003896;28;20642;-61
2022/04/14 01:24:17;;;;;;;21.50;17.83;;;;;;;;;;5010015;28;20178;-61
2022/04/14 01:26:43;;;;;;;21.77;18.63;;;;;;;;;;5004974;28;20582;-61
2022/04/14 01:29:19;;;;;;;20.50;17.80;;;;;;;;;;5006504;28;20241;-61
2022/04/14 01:31:45;;;;;;;21.70;17.70;;;;;;;;;;5002766;28;20228;-62
2022/04/14 01:34:11;;;;;;;23.20;17.90;;;;;;;;;;4999003;28;20308;-61
2022/04/14 01:36:37;;;;;;;23.50;18.23;;;;;;;;;;5000219;28;20193;-61
2022/04/14 01:39:03;;;;;;;21.83;18.00;;;;;;;;;;5001029;28;20239;-61
2022/04/14 01:41:29;;;;;;;21.27;18.33;;;;;;;;;;5004944;28;20189;-61
2022/04/14 01:43:55;;;;;;;24.30;19.10;;;;;;;;;;4996063;28;20646;-61
2022/04/14 01:46:21;;;;;;;24.10;20.43;;;;;;;;;;4993243;28;20192;-61
2022/04/14 01:48:47;;;;;;;26.37;18.43;;;;;;;;;;4999129;28;20303;-60
2022/04/14 01:51:13;;;;;;;25.30;20.47;;;;;;;;;;4996188;28;20651;-61
2022/04/14 01:53:39;;;;;;;23.00;18.50;;;;;;;;;;4998165;28;20722;-61
2022/04/14 01:56:05;;;;;;;23.10;19.23;;;;;;;;;;5002387;28;20259;-61
2022/04/14 01:58:31;;;;;;;22.60;19.10;;;;;;;;;;5004140;28;20206;-61
2022/04/14 02:00:57;;;;;;;23.17;19.00;;;;;;;;;;4994130;28;20192;-61
2022/04/14 02:03:23;;;;;;;24.63;19.60;;;;;;;;;;5000755;28;20195;-61
2022/04/14 02:05:49;;;;;;;24.70;19.00;;;;;;;;;;4982719;28;20196;-61
2022/04/14 02:08:15;;;;;;;23.23;20.10;;;;;;;;;;4992292;28;20248;-61
2022/04/14 02:10:41;;;;;;;20.87;17.77;;;;;;;;;;5005535;28;20196;-61
2022/04/14 02:13:06;;;;;;;21.80;18.00;;;;;;;;;;5004089;28;20201;-61
2022/04/14 02:15:32;;;;;;;23.43;18.33;;;;;;;;;;4999370;28;20220;-61
2022/04/14 02:17:58;;;;;;;22.23;18.97;;;;;;;;;;4997070;28;20765;-61
2022/04/14 02:20:24;;;;;;;23.30;19.73;;;;;;;;;;5004739;28;20642;-61
2022/04/14 02:22:50;;;;;;;24.47;19.03;;;;;;;;;;4997194;28;20556;-61
2022/04/14 02:25:16;;;;;;;21.37;18.90;;;;;;;;;;5001244;28;20259;-61
2022/04/14 02:27:42;;;;;;;25.23;19.40;;;;;;;;;;4997942;28;20196;-61
2022/04/14 02:30:08;;;;;;;25.13;19.33;;;;;;;;;;5000113;28;20330;-62
2022/04/14 02:32:34;;;;;;;23.87;21.10;;;;;;;;;;5001785;28;20190;-61
2022/04/14 02:35:01;;;;;;;26.20;20.63;;;;;;;;;;5000015;28;20197;-61
2022/04/14 02:37:27;;;;;;;28.87;20.90;;;;;;;;;;5001739;28;20309;-61
2022/04/14 02:39:53;;;;;;;27.37;21.17;;;;;;;;;;5002284;28;20221;-61
2022/04/14 02:42:19;;;;;;;26.73;20.57;;;;;;;;;;5004774;28;20277;-61
2022/04/14 02:44:45;;;;;;;29.27;20.97;;;;;;;;;;4996887;28;20197;-61
2022/04/14 02:47:11;;;;;;;25.00;20.03;;;;;;;;;;4993060;28;20185;-61
2022/04/14 02:49:37;;;;;;;23.93;21.17;;;;;;;;;;4994906;28;20198;-61
2022/04/14 02:52:03;;;;;;;23.37;19.30;;;;;;;;;;4998568;28;20539;-62
2022/04/14 02:54:29;;;;;;;24.27;19.60;;;;;;;;;;4993895;28;20200;-61
2022/04/14 02:56:55;;;;;;;23.30;18.80;;;;;;;;;;5002362;28;20484;-61
2022/04/14 02:59:21;;;;;;;23.23;18.87;;;;;;;;;;5001935;28;20248;-61
2022/04/14 03:01:47;;;;;;;25.83;19.97;;;;;;;;;;4997866;28;20261;-61
2022/04/14 03:04:13;;;;;;;23.87;19.67;;;;;;;;;;5003290;28;20189;-61
2022/04/14 03:06:39;;;;;;;24.07;19.17;;;;;;;;;;5001251;28;20206;-62
2022/04/14 03:09:05;;;;;;;22.80;19.23;;;;;;;;;;5001206;28;20192;-61
2022/04/14 03:11:31;;;;;;;23.20;19.07;;;;;;;;;;5003237;28;20197;-61
2022/04/14 03:13:57;;;;;;;25.17;20.47;;;;;;;;;;5004769;28;20192;-61
2022/04/14 03:16:23;;;;;;;22.80;18.30;;;;;;;;;;5000054;28;20198;-61
2022/04/14 03:18:49;;;;;;;22.67;17.87;;;;;;;;;;4998783;28;20266;-61
2022/04/14 03:21:15;;;;;;;26.97;20.33;;;;;;;;;;4998234;28;20193;-62
2022/04/14 03:23:41;;;;;;;24.27;20.37;;;;;;;;;;5002161;28;20195;-61
2022/04/14 03:26:08;;;;;;;25.80;20.27;;;;;;;;;;4997092;28;20270;-60
2022/04/14 03:28:35;;;;;;;27.87;22.57;;;;;;;;;;5000574;28;20193;-61
2022/04/14 03:31:01;;;;;;;25.30;20.23;;;;;;;;;;5001201;28;20659;-61
2022/04/14 03:33:27;;;;;;;29.60;23.10;;;;;;;;;;4998088;28;20792;-60
2022/04/14 03:35:53;;;;;;;30.60;23.50;;;;;;;;;;5000583;28;20201;-61
2022/04/14 03:38:18;;;;;;;33.50;24.93;;;;;;;;;;4992551;28;20217;-60
2022/04/14 03:40:44;;;;;;;29.50;24.00;;;;;;;;;;5000205;28;20181;-61
2022/04/14 03:43:10;;;;;;;33.77;25.80;;;;;;;;;;5002262;28;20300;-61
2022/04/14 03:45:36;;;;;;;30.97;24.57;;;;;;;;;;4994434;28;20253;-61
2022/04/14 03:48:02;;;;;;;35.43;25.80;;;;;;;;;;4998317;28;20197;-60
2022/04/14 03:50:28;;;;;;;36.03;25.80;;;;;;;;;;5000516;28;20185;-61
2022/04/14 03:52:54;;;;;;;33.57;26.00;;;;;;;;;;5008558;28;20545;-61
2022/04/14 03:55:20;;;;;;;37.87;27.73;;;;;;;;;;4998995;28;20189;-60
2022/04/14 03:57:46;;;;;;;31.60;26.63;;;;;;;;;;4997169;28;20204;-61
2022/04/14 04:00:12;;;;;;;34.63;26.07;;;;;;;;;;4994929;28;20217;-61
2022/04/14 04:02:39;;;;;;;36.33;27.57;;;;;;;;;;4996393;28;20197;-60
2022/04/14 04:05:05;;;;;;;32.40;26.73;;;;;;;;;;4996957;28;20247;-61
2022/04/14 04:07:31;;;;;;;32.97;26.63;;;;;;;;;;4995742;28;20220;-61
2022/04/14 04:09:57;;;;;;;40.70;27.90;;;;;;;;;;4998333;28;22696;-61
2022/04/14 04:12:23;;;;;;;35.17;28.07;;;;;;;;;;5000140;28;20224;-61
2022/04/14 04:14:49;;;;;;;38.10;27.43;;;;;;;;;;5015060;28;20247;-61
2022/04/14 04:17:16;;;;;;;37.17;27.97;;;;;;;;;;5003487;28;20193;-61
2022/04/14 04:19:43;;;;;;;42.47;29.83;;;;;;;;;;4999529;28;20225;-61
2022/04/14 04:22:09;;;;;;;37.37;29.07;;;;;;;;;;4987809;28;20189;-60
2022/04/14 04:24:35;;;;;;;41.97;29.37;;;;;;;;;;5001091;28;20226;-61
2022/04/14 04:27:01;;;;;;;38.00;28.90;;;;;;;;;;5005678;28;20339;-61
2022/04/14 04:29:27;;;;;;;40.37;29.40;;;;;;;;;;5002745;28;20245;-60
2022/04/14 04:31:53;;;;;;;40.57;30.30;;;;;;;;;;4997827;28;20228;-61
2022/04/14 04:34:19;;;;;;;42.70;31.20;;;;;;;;;;5000425;28;20564;-61
2022/04/14 04:36:44;;;;;;;44.87;32.83;;;;;;;;;;5003861;28;20200;-61
2022/04/14 04:39:10;;;;;;;42.33;29.60;;;;;;;;;;4999382;28;20217;-60
2022/04/14 04:41:37;;;;;;;42.27;31.83;;;;;;;;;;5007453;28;20200;-62
2022/04/14 04:44:04;;;;;;;44.67;31.87;;;;;;;;;;5006902;28;20712;-62
2022/04/14 04:46:30;;;;;;;48.63;33.13;;;;;;;;;;4999084;28;20569;-61
2022/04/14 04:48:56;;;;;;;41.27;31.87;;;;;;;;;;5000644;28;20332;-61
2022/04/14 04:51:22;;;;;;;46.37;32.93;;;;;;;;;;4996088;28;20610;-61
2022/04/14 04:53:48;;;;;;;46.57;31.77;;;;;;;;;;4998213;28;20197;-61
2022/04/14 04:56:14;;;;;;;42.67;32.90;;;;;;;;;;4991658;28;20241;-61
2022/04/14 04:58:40;;;;;;;47.50;34.23;;;;;;;;;;5007081;28;20216;-60
2022/04/14 05:01:06;;;;;;;44.97;33.07;;;;;;;;;;5001214;28;20878;-61
2022/04/14 05:03:32;;;;;;;43.03;31.93;;;;;;;;;;5000557;28;24859;-62
2022/04/14 05:05:57;;;;;;;45.20;33.07;;;;;;;;;;5002200;28;20250;-60
2022/04/14 05:08:23;;;;;;;45.70;33.13;;;;;;;;;;4990470;28;20767;-61
2022/04/14 05:10:49;;;;;;;43.57;31.77;;;;;;;;;;4998647;28;20198;-61
2022/04/14 05:13:18;;;;;;;44.10;32.63;;;;;;;;;;5005433;28;20259;-62
2022/04/14 05:15:44;;;;;;;48.33;32.17;;;;;;;;;;5002716;28;20190;-61
2022/04/14 05:18:10;;;;;;;41.03;30.83;;;;;;;;;;4995366;28;20190;-61
2022/04/14 05:20:36;;;;;;;45.60;32.87;;;;;;;;;;4994360;28;20221;-61
2022/04/14 05:23:03;;;;;;;45.97;32.80;;;;;;;;;;5005151;28;21071;-61
2022/04/14 05:25:29;;;;;;;46.97;32.07;;;;;;;;;;5000872;28;20320;-62
2022/04/14 05:27:55;;;;;;;42.33;31.97;;;;;;;;;;5004443;28;20200;-61
2022/04/14 05:30:21;;;;;;;42.53;31.50;;;;;;;;;;5003001;28;20233;-61
2022/04/14 05:32:47;;;;;;;43.97;31.37;;;;;;;;;;5007016;28;20193;-61
2022/04/14 05:35:13;;;;;;;40.57;30.87;;;;;;;;;;5005831;28;20498;-61
2022/04/14 05:37:39;;;;;;;43.63;31.30;;;;;;;;;;5005242;28;20258;-60
2022/04/14 05:40:05;;;;;;;41.20;29.80;;;;;;;;;;5007361;28;20311;-61
2022/04/14 05:42:31;;;;;;;44.87;30.47;;;;;;;;;;4999518;28;20224;-61
2022/04/14 05:44:58;;;;;;;39.03;29.07;;;;;;;;;;5005428;28;20642;-61
2022/04/14 05:47:24;;;;;;;38.30;29.53;;;;;;;;;;5000800;28;20197;-61
2022/04/14 05:49:51;;;;;;;40.60;30.10;;;;;;;;;;5005059;28;20255;-61
2022/04/14 05:52:17;;;;;;;42.20;29.13;;;;;;;;;;4995292;28;20198;-61
2022/04/14 05:54:45;;;;;;;36.30;28.17;;;;;;;;;;4995355;28;20196;-61
2022/04/14 05:57:11;;;;;;;39.67;27.03;;;;;;;;;;5001205;28;20345;-61
2022/04/14 05:59:37;;;;;;;42.03;28.07;;;;;;;;;;5002533;28;20733;-61
2022/04/14 06:02:03;;;;;;;37.53;27.03;;;;;;;;;;4981761;28;20255;-62
2022/04/14 06:04:29;;;;;;;35.03;25.43;;;;;;;;;;4994156;28;20729;-61
2022/04/14 06:06:55;;;;;;;36.93;26.30;;;;;;;;;;4998297;28;20217;-62
2022/04/14 06:09:21;;;;;;;31.63;25.23;;;;;;;;;;4994219;28;20197;-61
2022/04/14 06:11:47;;;;;;;39.20;25.73;;;;;;;;;;4999639;28;20201;-62
2022/04/14 06:14:13;;;;;;;36.87;23.67;;;;;;;;;;4998315;28;20200;-61
2022/04/14 06:16:38;;;;;;;32.57;24.73;;;;;;;;;;4988545;28;20760;-61
2022/04/14 06:19:04;;;;;;;33.50;24.13;;;;;;;;;;4996949;28;20710;-61
2022/04/14 06:21:30;;;;;;;34.57;23.50;;;;;;;;;;5000356;28;20655;-61
2022/04/14 06:23:57;;;;;;;30.10;22.33;;;;;;;;;;5001479;28;20255;-61
2022/04/14 06:26:23;;;;;;;31.57;22.87;;;;;;;;;;4997933;28;20193;-62
2022/04/14 06:28:49;;;;;;;31.83;22.70;;;;;;;;;;4987442;28;20232;-61
2022/04/14 06:31:15;;;;;;;33.03;21.93;;;;;;;;;;4993310;28;20208;-61
2022/04/14 06:33:41;;;;;;;32.07;22.40;;;;;;;;;;4997467;28;24570;-61
2022/04/14 06:36:07;;;;;;;30.37;21.17;;;;;;;;;;4988890;28;20201;-61
2022/04/14 06:38:33;;;;;;;29.80;20.20;;;;;;;;;;4992168;28;20228;-61
2022/04/14 06:40:59;;;;;;;29.07;20.53;;;;;;;;;;4993878;28;20188;-62
2022/04/14 06:43:25;;;;;;;25.70;19.23;;;;;;;;;;4995323;28;20184;-62
2022/04/14 06:45:51;;;;;;;42.17;24.07;;;;;;;;;;4990719;28;20579;-62
2022/04/14 06:48:17;;;;;;;31.13;22.03;;;;;;;;;;4995484;28;20189;-61
2022/04/14 06:50:43;;;;;;;26.17;17.33;;;;;;;;;;5000218;28;20217;-58
2022/04/14 06:53:09;;;;;;;23.63;17.20;;;;;;;;;;4997040;28;20837;-58
2022/04/14 06:55:37;;;;;;;25.47;18.23;;;;;;;;;;5003797;28;20195;-58
2022/04/14 06:58:03;;;;;;;28.77;17.60;;;;;;;;;;4991630;28;20224;-58
2022/04/14 07:00:30;;;;;;;23.27;15.93;;;;;;;;;;4992067;28;20562;-58
2022/04/14 07:02:57;;;;;;;20.77;14.73;;;;;;;;;;4982407;28;20197;-58
2022/04/14 07:05:23;;;;;;;21.97;15.50;;;;;;;;;;5004985;28;20181;-58
2022/04/14 07:07:49;;;;;;;25.73;14.93;;;;;;;;;;4998796;28;20470;-58
2022/04/14 07:10:14;;;;;;;17.83;12.90;;;;;;;;;;5006241;28;20201;-58
2022/04/14 07:12:41;;;;;;;21.47;14.27;;;;;;;;;;5001670;28;20197;-58
2022/04/14 07:15:07;;;;;;;15.97;12.53;;;;;;;;;;4999488;28;20248;-58
2022/04/14 07:17:36;;;;;;;18.93;12.40;;;;;;;;;;5005323;28;20284;-58
2022/04/14 07:20:03;;;;;;;19.93;13.07;;;;;;;;;;5002246;28;20216;-58
2022/04/14 07:22:30;;;;;;;16.97;13.77;;;;;;;;;;4995310;28;20198;-58
2022/04/14 07:24:58;;;;;;;14.33;12.23;;;;;;;;;;4995640;28;20201;-58
2022/04/14 07:27:24;;;;;;;16.83;12.27;;;;;;;;;;5004766;28;20192;-58
2022/04/14 07:29:50;;;;;;;16.57;12.33;;;;;;;;;;5001002;28;20236;-58
2022/04/14 07:32:16;;;;;;;17.63;13.00;;;;;;;;;;4998231;28;20270;-58
2022/04/14 07:34:42;;;;;;;18.97;12.67;;;;;;;;;;5007606;28;20266;-58
2022/04/14 07:37:08;;;;;;;18.23;12.57;;;;;;;;;;5002406;28;20702;-58
2022/04/14 07:39:34;;;;;;;15.37;11.23;;;;;;;;;;5010643;28;20508;-58
2022/04/14 07:42:00;;;;;;;16.07;11.10;;;;;;;;;;5009483;28;20829;-58
2022/04/14 07:44:26;;;;;;;17.40;10.90;;;;;;;;;;5003823;28;20189;-57
2022/04/14 07:46:51;;;;;;;12.80;10.57;;;;;;;;;;5005042;28;20574;-58
2022/04/14 07:49:17;;;;;;;12.63;9.93;;;;;;;;;;5000664;28;20641;-58
2022/04/14 07:51:43;;;;;;;13.37;9.23;;;;;;;;;;5002604;28;20538;-58
2022/04/14 07:54:10;;;;;;;11.30;8.47;;;;;;;;;;5006775;28;20204;-57
2022/04/14 07:56:36;;;;;;;14.07;9.17;;;;;;;;;;5002309;28;20197;-58
2022/04/14 07:59:02;;;;;;;10.90;8.77;;;;;;;;;;5004653;28;20220;-59
2022/04/14 08:01:29;;;;;;;11.20;7.97;;;;;;;;;;5003019;28;20324;-58
2022/04/14 08:03:55;;;;;;;11.27;8.27;;;;;;;;;;4988688;28;20474;-58
2022/04/14 08:06:23;;;;;;;8.77;7.30;;;;;;;;;;5004193;28;20216;-58
2022/04/14 08:08:49;;;;;;;10.87;8.60;;;;;;;;;;5011691;28;20225;-58
2022/04/14 08:11:15;;;;;;;9.87;8.27;;;;;;;;;;5009591;28;20204;-58
2022/04/14 08:13:42;;;;;;;12.70;8.27;;;;;;;;;;4999811;28;20663;-61
2022/04/14 08:16:09;;;;;;;9.77;8.43;;;;;;;;;;5002435;28;20466;-58
2022/04/14 08:18:38;;;;;;;9.67;7.20;;;;;;;;;;5003607;28;20659;-58
2022/04/14 08:21:04;;;;;;;8.83;7.10;;;;;;;;;;4997775;28;20272;-58
2022/04/14 08:23:30;;;;;;;7.90;6.90;;;;;;;;;;4999502;28;20201;-58
2022/04/14 08:25:57;;;;;;;13.23;8.20;;;;;;;;;;5002961;28;20200;-58
2022/04/14 08:28:23;;;;;;;9.23;7.50;;;;;;;;;;5003864;28;20565;-58
2022/04/14 08:30:49;;;;;;;8.60;7.20;;;;;;;;;;4994192;28;20185;-58
2022/04/14 08:33:18;;;;;;;10.70;7.37;;;;;;;;;;4997110;28;20774;-59
2022/04/14 08:35:44;;;;;;;10.93;7.90;;;;;;;;;;5003273;28;20193;-58
2022/04/14 08:38:10;;;;;;;9.75;7.97;;;;;;;;;;5008617;28;20280;-58
2022/04/14 08:40:37;;;;;;;10.32;8.60;;;;;;;;;;5012269;28;20355;-58
2022/04/14 08:43:06;;;;;;;10.25;7.80;;;;;;;;;;5006704;28;20178;-58
2022/04/14 08:45:37;;;;;;;13.38;8.55;;;;;;;;;;5007501;28;20194;-55
2022/04/14 08:48:04;;;;;;;9.55;8.27;;;;;;;;;;5011414;28;20231;-57
2022/04/14 08:50:30;;;;;;;11.02;9.00;;;;;;;;;;5002012;28;20335;-57
2022/04/14 08:52:56;;;;;;;9.48;8.50;;;;;;;;;;5009384;28;20198;-57
2022/04/14 08:55:22;;;;;;;12.20;8.77;;;;;;;;;;5008477;28;20197;-57
2022/04/14 08:57:48;;;;;;;14.70;11.10;;;;;;;;;;5005272;28;20252;-58
2022/04/14 09:00:16;;;;;;;15.55;12.02;;;;;;;;;;5001285;28;20427;-58
2022/04/14 09:02:46;;;;;;;15.98;14.15;;;;;;;;;;4999247;28;20185;-58
2022/04/14 09:05:13;;;;;;;18.48;14.75;;;;;;;;;;4993832;28;20666;-57
2022/04/14 09:07:39;;;;;;;17.90;13.80;;;;;;;;;;4998609;28;20555;-58
2022/04/14 09:10:05;;;;;;;21.60;15.45;;;;;;;;;;5000248;28;20251;-60
2022/04/14 09:12:31;;;;;;;18.88;14.77;;;;;;;;;;4998354;28;20224;-61
2022/04/14 09:14:57;;;;;;;23.85;14.75;;;;;;;;;;5004515;28;20720;-59
2022/04/14 09:17:23;;;;;;;18.55;14.65;;;;;;;;;;5002022;28;20197;-59
2022/04/14 09:19:49;;;;;;;18.85;15.70;;;;;;;;;;5006569;28;20217;-59
2022/04/14 09:22:15;;;;;;;17.88;13.80;;;;;;;;;;5002387;28;21731;-59
2022/04/14 09:24:44;;;;;;;18.00;14.65;;;;;;;;;;5006271;28;20212;-59
2022/04/14 09:27:22;;;;;;;18.50;14.40;;;;;;;;;;5011755;28;20301;-59
2022/04/14 09:29:48;;;;;;;15.25;13.13;;;;;;;;;;5009308;28;20236;-57
2022/04/14 09:32:43;;;;;;;14.73;12.27;;;;;;;;;;5004694;28;20851;-55
2022/04/14 09:35:16;;;;;;;17.55;12.40;;;;;;;;;;5003612;28;21533;-53
2022/04/14 09:37:42;;;;;;;15.07;12.38;;;;;;;;;;5006132;28;20205;-53
2022/04/14 09:40:09;;;;;;;13.05;10.88;;;;;;;;;;5008512;28;20265;-57
2022/04/14 09:42:36;;;;;;;17.48;10.07;;;;;;;;;;4998234;28;20193;-57
2022/04/14 09:45:18;;;;;;;12.25;10.90;;;;;;;;;;5004773;28;20193;-57
2022/04/14 09:47:44;;;;;;;11.68;9.15;;;;;;;;;;4995082;28;20560;-57
2022/04/14 09:50:26;;;;;;;13.63;9.88;;;;;;;;;;5000645;28;20761;-59
2022/04/14 09:53:08;;;;;;;11.05;8.25;;;;;;;;;;5000707;28;20200;-59
2022/04/14 09:55:34;;;;;;;13.30;8.77;;;;;;;;;;5005921;28;20192;-59
2022/04/14 09:58:12;;;;;;;8.30;7.45;;;;;;;;;;5009355;28;20208;-59
2022/04/14 10:00:42;;;;;;;8.75;6.13;;;;;;;;;;5012075;28;20700;-59
2022/04/14 10:03:18;;;;;;;12.02;6.90;;;;;;;;;;4998136;28;20835;-59
2022/04/14 10:05:45;;;;;;;13.18;7.80;;;;;;;;;;5004892;28;20176;-59
2022/04/14 10:08:13;;;;;;;13.70;11.20;;;;;;;;;;5010119;28;20200;-59
2022/04/14 10:10:39;;;;;;;11.45;10.02;;;;;;;;;;5008754;28;20193;-59
2022/04/14 10:13:09;;;;;;;12.63;10.93;;;;;;;;;;5003422;28;20946;-59
2022/04/14 10:15:36;;;;;;;10.45;8.07;;;;;;;;;;5012408;28;20206;-59
2022/04/14 10:18:06;;;;;;;13.15;10.50;;;;;;;;;;4999657;28;20220;-59
2022/04/14 10:20:33;;;;;;;8.98;8.07;;;;;;;;;;5006947;28;20205;-58
2022/04/14 10:23:02;;;;;;;9.52;7.53;;;;;;;;;;5003845;28;20268;-58
2022/04/14 10:25:28;;;;;;;13.27;11.35;;;;;;;;;;5013189;28;20190;-58
2022/04/14 10:27:54;;;;;;;12.52;11.23;;;;;;;;;;5008564;28;20776;-58
2022/04/14 10:30:20;;;;;;;13.35;10.93;;;;;;;;;;5009560;28;20264;-58
2022/04/14 10:32:47;;;;;;;12.68;10.90;;;;;;;;;;5011078;28;20198;-58
2022/04/14 10:35:13;;;;;;;10.07;9.07;;;;;;;;;;5010430;28;20204;-58
2022/04/14 10:37:42;;;;;;;14.95;11.73;;;;;;;;;;5016973;28;20243;-58
2022/04/14 10:40:11;;;;;;;12.35;10.30;;;;;;;;;;5005763;28;20206;-56
2022/04/14 10:42:37;;;;;;;10.98;7.00;;;;;;;;;;5006550;28;20181;-56
2022/04/14 10:45:17;;;;;;;9.98;8.18;;;;;;;;;;5005185;28;20188;-59
2022/04/14 10:47:43;;;;;;;8.23;7.38;;;;;;;;;;4998844;28;20337;-58
2022/04/14 10:50:28;;;;;;;8.48;7.25;;;;;;;;;;5006425;28;20196;-58
2022/04/14 10:53:07;;;;;;;9.60;8.60;;;;;;;;;;5011710;28;20247;-58
2022/04/14 10:55:35;;;;;;;12.88;11.60;;;;;;;;;;5010325;28;20199;-59
2022/04/14 10:58:01;;;;;;;10.88;9.77;;;;;;;;;;4995382;28;20553;-58
2022/04/14 11:00:35;;;;;;;11.93;10.75;;;;;;;;;;5001317;28;20216;-59
2022/04/14 11:03:05;;;;;;;17.70;13.70;;;;;;;;;;5004702;28;20201;-55
2022/04/14 11:05:40;;;;;;;13.15;11.85;;;;;;;;;;5002966;28;20200;-56
2022/04/14 11:08:22;;;;;;;9.10;8.15;;;;;;;;;;5011316;28;20208;-56
2022/04/14 11:10:55;;;;;;;19.13;16.58;;;;;;;;;;5008775;28;20654;-59
2022/04/14 11:13:21;;;;;;;10.13;8.65;;;;;;;;;;5005706;28;20185;-58
2022/04/14 11:15:47;;;;;;;8.10;6.75;;;;;;;;;;5011044;28;20193;-58
2022/04/14 11:18:13;;;;;;;9.50;8.57;;;;;;;;;;5001031;28;20984;-57
2022/04/14 11:20:44;;;;;;;9.10;8.23;;;;;;;;;;5010658;28;20556;-58
2022/04/14 11:23:16;;;;;;;6.88;6.13;;;;;;;;;;5009322;28;20189;-57
2022/04/14 11:25:49;;;;;;;9.13;7.25;;;;;;;;;;5013099;28;20594;-58
2022/04/14 11:28:21;;;;;;;9.80;5.82;;;;;;;;;;5006496;28;20184;-58
2022/04/14 11:30:47;;;;;;;10.73;7.22;;;;;;;;;;5010531;28;20275;-58
2022/04/14 11:33:28;;;;;;;7.68;6.50;;;;;;;;;;5011542;28;20200;-58
2022/04/14 11:36:07;;;;;;;7.18;6.15;;;;;;;;;;5007615;28;20186;-58
2022/04/14 11:38:50;;;;;;;9.18;8.25;;;;;;;;;;4990483;28;20189;-58
2022/04/14 11:41:36;;;;;;;11.40;6.70;;;;;;;;;;5001147;28;20186;-58
2022/04/14 11:44:05;;;;;;;6.82;5.68;;;;;;;;;;5005926;28;20185;-58
2022/04/14 11:46:31;;;;;;;6.97;5.90;;;;;;;;;;5005948;28;20421;-58
2022/04/14 11:48:58;;;;;;;8.50;7.25;;;;;;;;;;5004461;28;20197;-58
2022/04/14 11:51:24;;;;;;;6.05;5.55;;;;;;;;;;5016013;28;20231;-58
2022/04/14 11:53:53;;;;;;;8.60;7.10;;;;;;;;;;5017440;28;20279;-56
2022/04/14 11:56:19;;;;;;;12.75;7.00;;;;;;;;;;5015857;28;20639;-58
2022/04/14 11:58:45;;;;;;;7.30;6.15;;;;;;;;;;5013580;28;20212;-58
2022/04/14 12:01:12;;;;;;;7.72;6.63;;;;;;;;;;5015761;28;20271;-58
2022/04/14 12:03:38;;;;;;;9.32;6.90;;;;;;;;;;5016038;28;20185;-58
2022/04/14 12:06:05;;;;;;;9.48;8.57;;;;;;;;;;5017588;28;20666;-58
2022/04/14 12:08:31;;;;;;;12.73;11.35;;;;;;;;;;5010233;28;20189;-60
2022/04/14 12:11:01;;;;;;;12.40;11.18;;;;;;;;;;5015696;28;20192;-59
2022/04/14 12:13:27;;;;;;;10.88;9.85;;;;;;;;;;5010864;28;20224;-59
2022/04/14 12:16:02;;;;;;;10.55;8.05;;;;;;;;;;5014699;28;20219;-59
2022/04/14 12:18:28;;;;;;;10.30;9.10;;;;;;;;;;5010601;28;20338;-58
2022/04/14 12:20:54;;;;;;;11.25;10.18;;;;;;;;;;5005024;28;20192;-59
2022/04/14 12:23:20;;;;;;;9.82;8.57;;;;;;;;;;4992864;28;20307;-58
2022/04/14 12:25:46;;;;;;;9.57;8.68;;;;;;;;;;5004360;28;20685;-59
2022/04/14 12:28:12;;;;;;;9.90;8.95;;;;;;;;;;5003364;28;20185;-58
2022/04/14 12:30:41;;;;;;;10.90;9.80;;;;;;;;;;5007373;28;20225;-57
2022/04/14 12:33:07;;;;;;;9.90;8.88;;;;;;;;;;4999175;28;20637;-58
2022/04/14 12:35:35;;;;;;;9.52;8.52;;;;;;;;;;4999191;28;20197;-58
2022/04/14 12:38:21;;;;;;;11.75;10.43;;;;;;;;;;4996122;28;20198;-58
2022/04/14 12:40:56;;;;;;;12.13;10.93;;;;;;;;;;5005675;28;20709;-58
2022/04/14 12:43:23;;;;;;;12.32;10.60;;;;;;;;;;5002497;28;20192;-58
2022/04/14 12:45:49;;;;;;;12.95;10.90;;;;;;;;;;5004307;28;20207;-58
2022/04/14 12:48:25;;;;;;;11.65;9.50;;;;;;;;;;5017035;28;20191;-58
2022/04/14 12:50:54;;;;;;;11.27;9.80;;;;;;;;;;5014897;28;20436;-58
2022/04/14 12:53:24;;;;;;;11.80;8.93;;;;;;;;;;5013887;28;20193;-58
2022/04/14 12:55:51;;;;;;;10.07;8.63;;;;;;;;;;5009299;28;20562;-58
2022/04/14 12:58:17;;;;;;;9.75;7.88;;;;;;;;;;5013836;28;20197;-57
2022/04/14 13:00:43;;;;;;;9.30;6.93;;;;;;;;;;4998645;28;20241;-57
2022/04/14 13:03:16;;;;;;;11.82;7.68;;;;;;;;;;5004312;28;20296;-58
2022/04/14 13:05:42;;;;;;;8.57;7.40;;;;;;;;;;5007914;28;20806;-58
2022/04/14 13:08:08;;;;;;;9.32;7.97;;;;;;;;;;5003158;28;20223;-58
2022/04/14 13:10:35;;;;;;;12.48;9.52;;;;;;;;;;5003513;28;20186;-58
2022/04/14 13:13:01;;;;;;;14.00;9.05;;;;;;;;;;4991261;28;20196;-58
2022/04/14 13:15:28;;;;;;;11.55;9.60;;;;;;;;;;4999444;28;20203;-57
2022/04/14 13:17:54;;;;;;;12.95;9.15;;;;;;;;;;4998956;28;20224;-57
2022/04/14 13:20:21;;;;;;;12.77;9.57;;;;;;;;;;4999552;28;20399;-57
2022/04/14 13:22:48;;;;;;;10.23;9.23;;;;;;;;;;5004089;28;20189;-57
2022/04/14 13:25:14;;;;;;;11.20;8.80;;;;;;;;;;4999262;28;20193;-57
2022/04/14 13:27:40;;;;;;;12.27;9.10;;;;;;;;;;4997372;28;20193;-58
2022/04/14 13:30:07;;;;;;;11.53;8.97;;;;;;;;;;4993686;28;20686;-57
2022/04/14 13:32:33;;;;;;;12.93;8.83;;;;;;;;;;4995056;28;20201;-57
2022/04/14 13:34:59;;;;;;;9.80;7.50;;;;;;;;;;4997566;28;20263;-56
2022/04/14 13:37:24;;;;;;;10.33;6.40;;;;;;;;;;4994641;28;20200;-57
2022/04/14 13:39:50;;;;;;;12.80;7.00;;;;;;;;;;4996893;28;20675;-56
2022/04/14 13:42:16;;;;;;;8.23;5.77;;;;;;;;;;4997623;28;20733;-56
2022/04/14 13:44:43;;;;;;;7.73;6.40;;;;;;;;;;4978983;28;20613;-56
2022/04/14 13:47:09;;;;;;;8.03;5.87;;;;;;;;;;4994601;28;20321;-57
2022/04/14 13:49:35;;;;;;;7.80;6.00;;;;;;;;;;5002350;28;20201;-57
2022/04/14 13:52:01;;;;;;;6.88;5.95;;;;;;;;;;4990753;28;20218;-56
2022/04/14 13:54:27;;;;;;;8.18;6.32;;;;;;;;;;4985639;28;20276;-57
2022/04/14 13:56:53;;;;;;;10.85;6.80;;;;;;;;;;4995349;28;20847;-57
2022/04/14 13:59:19;;;;;;;10.98;5.97;;;;;;;;;;4991360;28;20279;-57
2022/04/14 14:01:45;;;;;;;8.13;5.35;;;;;;;;;;4989319;28;20189;-57
2022/04/14 14:04:11;;;;;;;6.07;5.50;;;;;;;;;;4994610;28;20980;-57
2022/04/14 14:06:37;;;;;;;9.02;6.25;;;;;;;;;;4985758;28;20649;-57
2022/04/14 14:09:03;;;;;;;8.00;5.93;;;;;;;;;;5002766;28;20260;-57
2022/04/14 14:11:30;;;;;;;7.38;5.80;;;;;;;;;;5002710;28;20198;-56
2022/04/14 14:13:56;;;;;;;8.63;5.30;;;;;;;;;;4995028;28;20189;-57
2022/04/14 14:16:22;;;;;;;7.88;4.82;;;;;;;;;;4991755;28;20248;-57
2022/04/14 14:18:48;;;;;;;6.90;5.80;;;;;;;;;;4994094;28;20267;-57
2022/04/14 14:21:14;;;;;;;7.28;5.38;;;;;;;;;;4995828;28;21849;-57
2022/04/14 14:23:40;;;;;;;7.80;4.88;;;;;;;;;;4996828;28;20264;-57